Terminal Aerodrome Forecast
Issued by NWS

Home | Current Version | Previous Version | Text Only | Print | Product List | Glossary On
Versions: 1 2 3 4 5 6 7 8 9 10 11 12 13 14 15 16 17 18 19 20 21 22 23 24 25 26 27 28 29 30 31 32
000
FTUS41 KBOX 160539
TAFACK
TAF
KACK 160539Z 1606/1706 08004KT P6SM BKN040
     FM161100 16004KT P6SM SCT150
     FM161700 18008KT P6SM BKN250
     FM162200 22007KT P6SM BKN070
     FM170000 25005KT P6SM SCT060=

USA.gov is the U.S. government's official web portal to all federal, state and local government web resources and services.